Estepa, Spain
Current Conditions -  °F | °C
As of 9:00 AM on Sunday 26 Oct 2014 (Local Time) from LEBA Reporting Station
Clear Clear  
Wind Chill: 52°   Ceiling: Unl
Heat Index: 52°   Visibility: 6mi
Dew Point: 46°   Wind: 1mph
Humidity: 82%   Direction: 70°ENE
Pressure: 30.12"   Gusts: NA
Location:  37.29°N, 4.88°W
Report Text: LEBA 260700Z 07001KT CAVOK 11/08 Q1020
Loading
Personal Weather Stations






























Interactive Weather Map
Tropical Storm Tracking
New forecast layout! Learn more

10-Day Weather Forecast

Advertisements
Track Severe Weather on mobile